Time;durP1;ratioP1;P1;durP2;ratioP2;P2;SDS_P1;SDS_P2;PMS_P1;PMS_P2;Temp;Humidity;BMP_temperature;BMP_pressure;BME280_temperature;BME280_humidity;BME280_pressure;Samples;Min_cycle;Max_cycle;Signal;HPM_P1;HPM_P2
2021/04/23 00:01:42;;;;;;;;;20.00;19.00;;;;;;;;3558905;39;113796;-70
2021/04/23 00:04:08;;;;;;;;;20.00;16.50;;;;;;;;3558480;39;111957;-69
2021/04/23 00:06:35;;;;;;;;;16.50;15.25;;;;;;;;3559722;39;113140;-70
2021/04/23 00:09:06;;;;;;;;;17.00;15.75;;;;;;;;3561369;39;114293;-70
2021/04/23 00:11:34;;;;;;;;;19.25;17.25;;;;;;;;3559633;39;113832;-69
2021/04/23 00:14:01;;;;;;;;;18.75;15.75;;;;;;;;3558567;39;114567;-69
2021/04/23 00:16:27;;;;;;;;;17.00;17.00;;;;;;;;3556286;39;112165;-70
2021/04/23 00:18:53;;;;;;;;;15.25;14.25;;;;;;;;3558786;39;113425;-69
2021/04/23 00:21:21;;;;;;;;;17.75;16.50;;;;;;;;3559154;39;113889;-69
2021/04/23 00:23:48;;;;;;;;;25.25;21.00;;;;;;;;3558511;39;112155;-69
2021/04/23 00:26:14;;;;;;;;;21.00;17.25;;;;;;;;3560107;39;113183;-70
2021/04/23 00:28:40;;;;;;;;;20.75;19.00;;;;;;;;3557774;39;113812;-69
2021/04/23 00:31:08;;;;;;;;;17.00;16.00;;;;;;;;3562503;39;112197;-70
2021/04/23 00:33:35;;;;;;;;;18.75;17.25;;;;;;;;3558087;39;113864;-70
2021/04/23 00:36:01;;;;;;;;;18.75;16.75;;;;;;;;3559516;39;111793;-68
2021/04/23 00:38:29;;;;;;;;;20.25;16.75;;;;;;;;3558902;39;113936;-71
2021/04/23 00:40:56;;;;;;;;;22.50;19.00;;;;;;;;3554835;39;113249;-69
2021/04/23 00:43:23;;;;;;;;;22.25;21.00;;;;;;;;3558944;39;112100;-70
2021/04/23 00:45:49;;;;;;;;;16.75;16.75;;;;;;;;3559454;39;113290;-70
2021/04/23 00:48:17;;;;;;;;;17.75;16.50;;;;;;;;3558126;39;113769;-69
2021/04/23 00:50:46;;;;;;;;;20.25;17.75;;;;;;;;3559828;39;112107;-69
2021/04/23 00:53:13;;;;;;;;;17.50;16.50;;;;;;;;3558607;39;113411;-69
2021/04/23 00:55:40;;;;;;;;;17.75;15.50;;;;;;;;3556460;39;112122;-69
2021/04/23 00:58:10;;;;;;;;;17.75;15.50;;;;;;;;3559539;39;113654;-69
2021/04/23 01:00:36;;;;;;;;;20.50;19.25;;;;;;;;3557772;39;114111;-70
2021/04/23 01:03:02;;;;;;;;;16.75;15.50;;;;;;;;3555722;39;111987;-71
2021/04/23 01:05:31;;;;;;;;;18.75;17.00;;;;;;;;3559066;39;113504;-71
2021/04/23 01:07:57;;;;;;;;;16.33;16.33;;;;;;;;3558675;39;113896;-72
2021/04/23 01:10:24;;;;;;;;;16.67;16.00;;;;;;;;3558877;39;111870;-70
2021/04/23 01:12:50;;;;;;;;;20.00;19.00;;;;;;;;3559364;39;113889;-71
2021/04/23 01:15:16;;;;;;;;;19.33;17.33;;;;;;;;3558171;39;113568;-70
2021/04/23 01:17:42;;;;;;;;;21.00;16.33;;;;;;;;3560513;39;113542;-70
2021/04/23 01:20:10;;;;;;;;;22.00;15.67;;;;;;;;3558531;39;114089;-69
2021/04/23 01:22:37;;;;;;;;;16.33;15.00;;;;;;;;3559246;39;112454;-70
2021/04/23 01:25:03;;;;;;;;;19.33;18.33;;;;;;;;3558426;39;113462;-70
2021/04/23 01:27:29;;;;;;;;;17.67;17.00;;;;;;;;3558603;39;114404;-71
2021/04/23 01:29:55;;;;;;;;;21.00;18.00;;;;;;;;3558786;39;111992;-69
2021/04/23 01:32:21;;;;;;;;;17.33;16.33;;;;;;;;3559911;39;113394;-71
2021/04/23 01:34:48;;;;;;;;;18.67;16.00;;;;;;;;3557575;39;113992;-70
2021/04/23 01:37:14;;;;;;;;;20.00;16.50;;;;;;;;3564479;39;113127;-70
2021/04/23 01:39:42;;;;;;;;;18.00;15.67;;;;;;;;3557344;39;114158;-70
2021/04/23 01:42:11;;;;;;;;;17.33;16.33;;;;;;;;3559851;39;111889;-69
2021/04/23 01:44:38;;;;;;;;;21.33;19.00;;;;;;;;3557803;39;113619;-69
2021/04/23 01:47:04;;;;;;;;;18.67;18.33;;;;;;;;3562676;39;114045;-71
2021/04/23 01:49:31;;;;;;;;;20.00;18.67;;;;;;;;3556712;39;112222;-68
2021/04/23 01:51:58;;;;;;;;;24.33;19.33;;;;;;;;3557989;39;113193;-70
2021/04/23 01:54:25;;;;;;;;;20.00;19.00;;;;;;;;3554700;39;113110;-70
2021/04/23 01:56:52;;;;;;;;;21.33;18.33;;;;;;;;3560810;39;112258;-70
2021/04/23 01:59:18;;;;;;;;;16.33;15.00;;;;;;;;3558450;39;113978;-70
2021/04/23 02:01:44;;;;;;;;;19.50;16.25;;;;;;;;3553976;39;112035;-72
2021/04/23 02:04:11;;;;;;;;;19.33;19.33;;;;;;;;3559567;39;113536;-71
2021/04/23 02:06:38;;;;;;;;;22.67;17.00;;;;;;;;3557020;39;113939;-69
2021/04/23 02:09:05;;;;;;;;;20.33;17.00;;;;;;;;3558972;39;112049;-70
2021/04/23 02:11:31;;;;;;;;;18.00;17.33;;;;;;;;3558115;39;113457;-70
2021/04/23 02:13:58;;;;;;;;;18.67;16.67;;;;;;;;3557850;39;113970;-69
2021/04/23 02:16:24;;;;;;;;;19.33;18.00;;;;;;;;3558593;39;111837;-70
2021/04/23 02:18:50;;;;;;;;;23.00;17.67;;;;;;;;3556392;39;112433;-71
2021/04/23 02:21:17;;;;;;;;;19.67;18.33;;;;;;;;3557565;39;111971;-70
2021/04/23 02:23:44;;;;;;;;;18.00;16.67;;;;;;;;3561244;39;113181;-70
2021/04/23 02:26:10;;;;;;;;;22.33;20.00;;;;;;;;3559872;39;113605;-70
2021/04/23 02:28:36;;;;;;;;;24.00;19.00;;;;;;;;3558836;39;112730;-70
2021/04/23 02:31:09;;;;;;;;;21.33;18.33;;;;;;;;3557352;39;112332;-70
2021/04/23 02:33:35;;;;;;;;;14.00;13.00;;;;;;;;3559901;39;114113;-70
2021/04/23 02:36:01;;;;;;;;;23.00;18.00;;;;;;;;3559255;39;112562;-70
2021/04/23 02:38:30;;;;;;;;;20.33;15.67;;;;;;;;3559943;39;113332;-69
2021/04/23 02:40:57;;;;;;;;;24.00;19.00;;;;;;;;3561738;39;113973;-69
2021/04/23 02:43:25;;;;;;;;;17.67;17.67;;;;;;;;3555944;39;112410;-70
2021/04/23 02:45:52;;;;;;;;;15.33;15.33;;;;;;;;3558922;39;114245;-70
2021/04/23 02:48:20;;;;;;;;;20.00;18.67;;;;;;;;3560161;39;112295;-70
2021/04/23 02:50:48;;;;;;;;;17.00;16.33;;;;;;;;3558821;39;113189;-70
2021/04/23 02:53:15;;;;;;;;;20.33;18.00;;;;;;;;3558013;39;114080;-69
2021/04/23 02:55:41;;;;;;;;;18.00;16.67;;;;;;;;3560286;39;112016;-70
2021/04/23 02:58:08;;;;;;;;;18.33;17.33;;;;;;;;3560459;39;113335;-70
2021/04/23 03:00:35;;;;;;;;;17.33;17.33;;;;;;;;3559870;39;114381;-69
2021/04/23 03:03:02;;;;;;;;;20.00;18.00;;;;;;;;3561761;39;111851;-70
2021/04/23 03:05:29;;;;;;;;;13.67;13.67;;;;;;;;3559405;39;113952;-70
2021/04/23 03:07:57;;;;;;;;;22.00;18.67;;;;;;;;3559377;39;113191;-69
2021/04/23 03:10:25;;;;;;;;;22.33;18.67;;;;;;;;3559395;39;113457;-69
2021/04/23 03:12:51;;;;;;;;;19.33;18.00;;;;;;;;3555811;39;113171;-70
2021/04/23 03:15:19;;;;;;;;;19.00;15.33;;;;;;;;3559018;39;112423;-70
2021/04/23 03:17:45;;;;;;;;;23.00;17.00;;;;;;;;3560007;39;113984;-69
2021/04/23 03:20:12;;;;;;;;;16.33;14.00;;;;;;;;3558162;39;114143;-69
2021/04/23 03:22:39;;;;;;;;;24.00;21.33;;;;;;;;3558611;39;111916;-69
2021/04/23 03:25:06;;;;;;;;;21.00;19.67;;;;;;;;3562467;39;113181;-69
2021/04/23 03:27:32;;;;;;;;;22.00;18.33;;;;;;;;3560162;39;112809;-69
2021/04/23 03:29:58;;;;;;;;;21.33;17.33;;;;;;;;3560241;39;113033;-70
2021/04/23 03:32:24;;;;;;;;;11.00;11.00;;;;;;;;3558887;39;113900;-68
2021/04/23 03:34:50;;;;;;;;;17.67;16.00;;;;;;;;3557523;39;113006;-70
2021/04/23 03:37:16;;;;;;;;;22.00;17.67;;;;;;;;3559789;39;113553;-69
2021/04/23 03:39:43;;;;;;;;;20.00;18.00;;;;;;;;3557821;39;114212;-69
2021/04/23 03:42:09;;;;;;;;;22.00;18.33;;;;;;;;3558621;39;111796;-69
2021/04/23 03:44:35;;;;;;;;;19.00;17.67;;;;;;;;3558634;39;113245;-69
2021/04/23 03:47:01;;;;;;;;;22.00;17.00;;;;;;;;3561984;39;113896;-69
2021/04/23 03:49:27;;;;;;;;;19.67;18.67;;;;;;;;3555691;39;112875;-70
2021/04/23 03:51:53;;;;;;;;;17.33;17.33;;;;;;;;3558771;39;114679;-68
2021/04/23 03:54:20;;;;;;;;;17.67;16.67;;;;;;;;3559536;39;111978;-69
2021/04/23 03:56:47;;;;;;;;;19.33;17.67;;;;;;;;3560599;39;113361;-70
2021/04/23 03:59:13;;;;;;;;;14.00;14.00;;;;;;;;3558116;39;114288;-72
2021/04/23 04:01:39;;;;;;;;;22.00;18.00;;;;;;;;3560287;39;111812;-72
2021/04/23 04:04:06;;;;;;;;;16.00;16.00;;;;;;;;3558476;39;113496;-69
2021/04/23 04:06:32;;;;;;;;;21.67;17.67;;;;;;;;3562017;39;113902;-68
2021/04/23 04:08:58;;;;;;;;;19.67;16.67;;;;;;;;3559087;39;113569;-67
2021/04/23 04:11:24;;;;;;;;;18.00;16.67;;;;;;;;3558933;39;114479;-68
2021/04/23 04:13:51;;;;;;;;;18.00;17.00;;;;;;;;3559248;39;112058;-72
2021/04/23 04:16:17;;;;;;;;;22.33;21.00;;;;;;;;3558907;39;113806;-72
2021/04/23 04:18:44;;;;;;;;;17.67;17.33;;;;;;;;3559259;39;114241;-72
2021/04/23 04:21:10;;;;;;;;;17.67;14.33;;;;;;;;3558449;39;111855;-72
2021/04/23 04:23:36;;;;;;;;;17.00;15.33;;;;;;;;3560133;39;113283;-71
2021/04/23 04:26:03;;;;;;;;;17.00;16.00;;;;;;;;3558198;39;114317;-72
2021/04/23 04:28:30;;;;;;;;;12.67;12.00;;;;;;;;3562253;39;112558;-70
2021/04/23 04:30:57;;;;;;;;;14.33;14.33;;;;;;;;3559789;39;114093;-70
2021/04/23 04:33:23;;;;;;;;;18.67;16.00;;;;;;;;3559340;39;111986;-71
2021/04/23 04:35:49;;;;;;;;;21.00;17.33;;;;;;;;3558752;39;113010;-70
2021/04/23 04:38:16;;;;;;;;;21.00;19.00;;;;;;;;3559291;39;114652;-71
2021/04/23 04:40:43;;;;;;;;;18.00;16.00;;;;;;;;3558147;39;111890;-70
2021/04/23 04:43:10;;;;;;;;;9.00;7.67;;;;;;;;3560111;39;113653;-70
2021/04/23 04:45:36;;;;;;;;;18.67;18.67;;;;;;;;3557958;39;113802;-73
2021/04/23 04:48:04;;;;;;;;;17.67;16.00;;;;;;;;3559487;39;112439;-73
2021/04/23 04:50:32;;;;;;;;;16.00;15.67;;;;;;;;3560711;39;113499;-70
2021/04/23 04:52:59;;;;;;;;;17.00;16.00;;;;;;;;3559645;39;111787;-71
2021/04/23 04:55:25;;;;;;;;;18.67;17.00;;;;;;;;3559067;39;113742;-71
2021/04/23 04:57:51;;;;;;;;;17.33;15.00;;;;;;;;3558390;39;113742;-70
2021/04/23 05:00:18;;;;;;;;;21.67;21.00;;;;;;;;3559337;39;111850;-69
2021/04/23 05:02:44;;;;;;;;;22.00;17.00;;;;;;;;3554740;39;112609;-68
2021/04/23 05:05:12;;;;;;;;;11.33;11.33;;;;;;;;3558100;39;113874;-68
2021/04/23 05:07:38;;;;;;;;;17.00;15.67;;;;;;;;3558026;39;111737;-68
2021/04/23 05:10:05;;;;;;;;;25.33;17.00;;;;;;;;3559720;39;113920;-68
2021/04/23 05:12:31;;;;;;;;;19.33;19.33;;;;;;;;3560502;39;113847;-68
2021/04/23 05:14:57;;;;;;;;;20.00;20.00;;;;;;;;3559208;39;113469;-68
2021/04/23 05:17:23;;;;;;;;;16.33;16.33;;;;;;;;3556554;39;113048;-71
2021/04/23 05:19:49;;;;;;;;;17.00;16.00;;;;;;;;3557148;39;111931;-70
2021/04/23 05:22:16;;;;;;;;;17.00;15.00;;;;;;;;3559180;39;113591;-68
2021/04/23 05:24:42;;;;;;;;;18.00;17.00;;;;;;;;3557903;39;114549;-70
2021/04/23 05:27:09;;;;;;;;;19.33;17.33;;;;;;;;3559878;39;112171;-69
2021/04/23 05:29:35;;;;;;;;;22.67;22.00;;;;;;;;3559195;39;113780;-66
2021/04/23 05:32:01;;;;;;;;;20.33;18.00;;;;;;;;3558764;39;114390;-65
2021/04/23 05:34:28;;;;;;;;;26.67;25.33;;;;;;;;3560951;39;112010;-66
2021/04/23 05:36:54;;;;;;;;;19.67;19.33;;;;;;;;3558141;39;114132;-66
2021/04/23 05:39:21;;;;;;;;;19.00;17.33;;;;;;;;3560920;39;112557;-64
2021/04/23 05:41:47;;;;;;;;;20.67;19.33;;;;;;;;3558121;39;112872;-67
2021/04/23 05:44:13;;;;;;;;;19.00;18.00;;;;;;;;3558316;39;113951;-72
2021/04/23 05:46:39;;;;;;;;;17.33;17.33;;;;;;;;3556563;39;111876;-66
2021/04/23 05:49:05;;;;;;;;;23.33;22.33;;;;;;;;3557117;39;113606;-65
2021/04/23 05:51:32;;;;;;;;;32.33;28.00;;;;;;;;3558612;39;113867;-65
2021/04/23 05:53:58;;;;;;;;;25.67;23.67;;;;;;;;3557354;39;112669;-66
2021/04/23 05:56:25;;;;;;;;;18.33;17.00;;;;;;;;3558273;39;113541;-70
2021/04/23 05:58:53;;;;;;;;;25.33;22.00;;;;;;;;3558139;39;112111;-67
2021/04/23 06:01:19;;;;;;;;;20.67;19.00;;;;;;;;3559618;39;113275;-67
2021/04/23 06:03:45;;;;;;;;;25.00;24.00;;;;;;;;3558461;39;114126;-66
2021/04/23 06:06:11;;;;;;;;;21.33;17.33;;;;;;;;3560306;39;111890;-69
2021/04/23 06:08:37;;;;;;;;;21.00;19.67;;;;;;;;3558754;39;113589;-67
2021/04/23 06:11:05;;;;;;;;;17.00;17.00;;;;;;;;3559298;39;113848;-66
2021/04/23 06:13:32;;;;;;;;;20.00;18.00;;;;;;;;3556315;39;112259;-67
2021/04/23 06:15:58;;;;;;;;;22.00;22.00;;;;;;;;3557610;39;112896;-67
2021/04/23 06:18:24;;;;;;;;;18.67;13.33;;;;;;;;3558329;39;112272;-66
2021/04/23 06:20:50;;;;;;;;;25.00;23.00;;;;;;;;3557587;39;113790;-66
2021/04/23 06:23:16;;;;;;;;;24.00;21.67;;;;;;;;3557134;39;113858;-66
2021/04/23 06:25:42;;;;;;;;;21.00;21.00;;;;;;;;3558009;39;112099;-67
2021/04/23 06:28:09;;;;;;;;;23.00;22.00;;;;;;;;3558417;39;114060;-66
2021/04/23 06:30:38;;;;;;;;;22.33;19.00;;;;;;;;3558008;39;114361;-66
2021/04/23 06:33:10;;;;;;;;;23.00;20.00;;;;;;;;3558622;39;111954;-66
2021/04/23 06:35:37;;;;;;;;;24.00;23.33;;;;;;;;3558512;39;113297;-66
2021/04/23 06:38:03;;;;;;;;;23.33;22.67;;;;;;;;3558755;39;113373;-67
2021/04/23 06:40:29;;;;;;;;;18.00;15.67;;;;;;;;3559816;39;113253;-68
2021/04/23 06:42:55;;;;;;;;;24.00;23.00;;;;;;;;3558734;39;113962;-65
2021/04/23 06:45:22;;;;;;;;;14.33;11.67;;;;;;;;3559421;39;111873;-66
2021/04/23 06:47:50;;;;;;;;;21.33;19.00;;;;;;;;3559648;39;113427;-66
2021/04/23 06:50:17;;;;;;;;;17.00;14.67;;;;;;;;3558545;39;113856;-65
2021/04/23 06:52:44;;;;;;;;;14.00;13.00;;;;;;;;3559668;39;112960;-66
2021/04/23 06:55:11;;;;;;;;;14.67;12.00;;;;;;;;3560651;39;113243;-66
2021/04/23 06:57:38;;;;;;;;;10.50;8.25;;;;;;;;3557711;39;113029;-66
2021/04/23 07:00:06;;;;;;;;;7.75;7.75;;;;;;;;3561017;39;112135;-65
2021/04/23 07:02:32;;;;;;;;;7.75;7.75;;;;;;;;3559300;39;114006;-66
2021/04/23 07:04:59;;;;;;;;;13.00;12.00;;;;;;;;3558880;39;112255;-66
2021/04/23 07:07:25;;;;;;;;;7.00;4.50;;;;;;;;3559547;39;113561;-66
2021/04/23 07:09:51;;;;;;;;;14.00;14.00;;;;;;;;3558594;39;114356;-66
2021/04/23 07:12:17;;;;;;;;;8.00;4.75;;;;;;;;3558922;39;112638;-66
2021/04/23 07:14:43;;;;;;;;;5.50;4.25;;;;;;;;3559864;39;113581;-67
2021/04/23 07:17:11;;;;;;;;;11.50;11.00;;;;;;;;3557985;39;114335;-65
2021/04/23 07:19:37;;;;;;;;;4.25;4.25;;;;;;;;3560140;39;111837;-67
2021/04/23 07:22:05;;;;;;;;;4.00;4.00;;;;;;;;3560780;39;114019;-67
2021/04/23 07:24:31;;;;;;;;;5.00;4.00;;;;;;;;3559128;39;112298;-66
2021/04/23 07:26:57;;;;;;;;;7.00;4.00;;;;;;;;3558896;39;113003;-67
2021/04/23 07:29:24;;;;;;;;;4.00;4.00;;;;;;;;3559124;39;113843;-66
2021/04/23 07:31:50;;;;;;;;;4.75;4.75;;;;;;;;3559093;39;111878;-72
2021/04/23 07:34:16;;;;;;;;;7.00;4.25;;;;;;;;3558823;39;113469;-69
2021/04/23 07:36:42;;;;;;;;;3.00;3.00;;;;;;;;3557847;39;113382;-69
2021/04/23 07:39:10;;;;;;;;;4.00;4.00;;;;;;;;3559452;39;111900;-68
2021/04/23 07:41:38;;;;;;;;;3.50;3.50;;;;;;;;3559228;39;113615;-69
2021/04/23 07:44:04;;;;;;;;;4.00;4.00;;;;;;;;3560670;39;114074;-71
2021/04/23 07:46:31;;;;;;;;;3.50;3.00;;;;;;;;3559692;39;112286;-68
2021/04/23 07:48:57;;;;;;;;;4.00;4.00;;;;;;;;3558323;39;113994;-69
2021/04/23 07:51:23;;;;;;;;;4.25;4.25;;;;;;;;3558078;39;112588;-68
2021/04/23 07:53:49;;;;;;;;;4.25;4.25;;;;;;;;3558266;39;113265;-71
2021/04/23 07:56:16;;;;;;;;;4.00;4.00;;;;;;;;3558259;39;114326;-70
2021/04/23 07:58:42;;;;;;;;;6.75;3.75;;;;;;;;3558749;39;112428;-71
2021/04/23 08:01:08;;;;;;;;;3.00;3.00;;;;;;;;3557499;39;113589;-70
2021/04/23 08:03:34;;;;;;;;;4.75;4.00;;;;;;;;3556459;39;114430;-70
2021/04/23 08:06:01;;;;;;;;;5.00;4.00;;;;;;;;3561926;39;112167;-71
2021/04/23 08:08:27;;;;;;;;;3.25;3.25;;;;;;;;3557642;39;114115;-70
2021/04/23 08:10:53;;;;;;;;;3.00;3.00;;;;;;;;3558243;39;112221;-74
2021/04/23 08:13:20;;;;;;;;;3.50;2.00;;;;;;;;3558547;39;113235;-71
2021/04/23 08:15:46;;;;;;;;;2.67;2.67;;;;;;;;3557031;39;114483;-71
2021/04/23 08:18:12;;;;;;;;;11.25;6.00;;;;;;;;3559055;39;113024;-69
2021/04/23 08:20:38;;;;;;;;;2.00;2.00;;;;;;;;3556622;39;113039;-71
2021/04/23 08:23:04;;;;;;;;;2.67;2.67;;;;;;;;3556402;39;114102;-70
2021/04/23 08:25:31;;;;;;;;;3.33;3.33;;;;;;;;3561087;39;112494;-69
2021/04/23 08:27:57;;;;;;;;;5.00;4.00;;;;;;;;3557446;39;113309;-69
2021/04/23 08:30:25;;;;;;;;;3.00;3.00;;;;;;;;3557433;39;112775;-69
2021/04/23 08:32:51;;;;;;;;;3.67;3.00;;;;;;;;3557294;39;113631;-70
2021/04/23 08:35:17;;;;;;;;;2.67;2.67;;;;;;;;3558491;39;114144;-71
2021/04/23 08:37:43;;;;;;;;;3.00;3.00;;;;;;;;3557192;39;112322;-69
2021/04/23 08:40:11;;;;;;;;;4.67;3.67;;;;;;;;3554432;39;112538;-69
2021/04/23 08:42:37;;;;;;;;;3.00;3.00;;;;;;;;3556468;39;113671;-71
2021/04/23 08:45:04;;;;;;;;;3.00;3.00;;;;;;;;3558904;39;111931;-71
2021/04/23 08:47:31;;;;;;;;;3.00;3.00;;;;;;;;3556961;39;112367;-70
2021/04/23 08:49:58;;;;;;;;;2.00;2.00;;;;;;;;3557893;39;112560;-69
2021/04/23 08:52:25;;;;;;;;;3.33;3.33;;;;;;;;3554572;39;112670;-69
2021/04/23 08:54:51;;;;;;;;;3.00;3.00;;;;;;;;3557173;39;113767;-70
2021/04/23 08:57:17;;;;;;;;;2.67;2.00;;;;;;;;3558675;39;112946;-71
2021/04/23 08:59:43;;;;;;;;;2.33;2.33;;;;;;;;3552409;39;112334;-69
2021/04/23 09:02:09;;;;;;;;;2.67;2.67;;;;;;;;3557125;39;113895;-75
2021/04/23 09:04:36;;;;;;;;;3.00;3.00;;;;;;;;3556395;39;112013;-69
2021/04/23 09:07:02;;;;;;;;;4.33;4.33;;;;;;;;3558268;39;113264;-68
2021/04/23 09:09:36;;;;;;;;;4.00;3.33;;;;;;;;3557706;39;113758;-69
2021/04/23 09:12:15;;;;;;;;;3.00;3.00;;;;;;;;3556885;39;113340;-68
2021/04/23 09:14:41;;;;;;;;;3.00;3.00;;;;;;;;3554605;39;114375;-69
2021/04/23 09:17:07;;;;;;;;;3.67;3.00;;;;;;;;3557220;39;112483;-69
2021/04/23 09:19:35;;;;;;;;;3.67;3.00;;;;;;;;3555989;39;113305;-68
2021/04/23 09:22:03;;;;;;;;;2.00;2.00;;;;;;;;3557031;39;113921;-69
2021/04/23 09:24:30;;;;;;;;;2.00;2.00;;;;;;;;3556805;39;111940;-69
2021/04/23 09:26:57;;;;;;;;;2.00;2.00;;;;;;;;3558237;39;113267;-67
2021/04/23 09:29:26;;;;;;;;;4.00;2.00;;;;;;;;3557552;39;114111;-68
2021/04/23 09:31:53;;;;;;;;;2.00;2.00;;;;;;;;3560742;39;113346;-67
2021/04/23 09:34:19;;;;;;;;;2.67;2.67;;;;;;;;3557540;39;113942;-69
2021/04/23 09:36:46;;;;;;;;;3.00;3.00;;;;;;;;3553419;39;111829;-69
2021/04/23 09:39:14;;;;;;;;;1.00;1.00;;;;;;;;3557398;39;113294;-68
2021/04/23 09:41:40;;;;;;;;;3.00;3.00;;;;;;;;3554677;39;113116;-68
2021/04/23 09:44:21;;;;;;;;;2.33;2.33;;;;;;;;3555045;39;111952;-68
2021/04/23 09:46:47;;;;;;;;;3.00;3.00;;;;;;;;3556341;39;112896;-68
2021/04/23 09:49:14;;;;;;;;;2.00;2.00;;;;;;;;3556533;39;113893;-68
2021/04/23 09:51:41;;;;;;;;;4.00;3.00;;;;;;;;3561474;39;112895;-68
2021/04/23 09:54:14;;;;;;;;;2.00;2.00;;;;;;;;3561480;39;113130;-70
2021/04/23 09:56:40;;;;;;;;;3.00;3.00;;;;;;;;3553260;39;113362;-69
2021/04/23 09:59:17;;;;;;;;;3.00;3.00;;;;;;;;3557202;39;113011;-69
2021/04/23 10:01:49;;;;;;;;;2.33;2.00;;;;;;;;3556274;39;114690;-68
2021/04/23 10:04:23;;;;;;;;;3.33;2.00;;;;;;;;3558240;39;112251;-68
2021/04/23 10:07:04;;;;;;;;;3.00;3.00;;;;;;;;3555645;39;112601;-68
2021/04/23 10:09:31;;;;;;;;;3.67;3.67;;;;;;;;3554720;39;113119;-68
2021/04/23 10:11:57;;;;;;;;;1.00;1.00;;;;;;;;3557801;39;112658;-70
2021/04/23 10:14:23;;;;;;;;;3.00;3.00;;;;;;;;3554262;39;112419;-69
2021/04/23 10:16:55;;;;;;;;;3.00;3.00;;;;;;;;3558900;39;111908;-68
2021/04/23 10:19:21;;;;;;;;;3.33;3.33;;;;;;;;3557781;39;113319;-70
2021/04/23 10:21:47;;;;;;;;;3.67;3.00;;;;;;;;3556411;39;114049;-70
2021/04/23 10:24:13;;;;;;;;;3.00;3.00;;;;;;;;3558091;39;112094;-68
2021/04/23 10:26:40;;;;;;;;;3.00;3.00;;;;;;;;3556367;39;114502;-69
2021/04/23 10:29:06;;;;;;;;;3.00;3.00;;;;;;;;3556293;39;114092;-66
2021/04/23 10:31:33;;;;;;;;;3.33;3.00;;;;;;;;3557877;39;111938;-66
2021/04/23 10:33:59;;;;;;;;;3.67;3.00;;;;;;;;3556946;39;113189;-67
2021/04/23 10:36:25;;;;;;;;;3.00;2.67;;;;;;;;3556361;39;113037;-66
2021/04/23 10:38:52;;;;;;;;;3.00;3.00;;;;;;;;3556524;39;113423;-69
2021/04/23 10:41:18;;;;;;;;;3.00;3.00;;;;;;;;3552848;39;112519;-67
2021/04/23 10:43:52;;;;;;;;;3.00;3.00;;;;;;;;3551947;39;112569;-66
2021/04/23 10:46:18;;;;;;;;;3.00;3.00;;;;;;;;3553105;39;112508;-66
2021/04/23 10:48:45;;;;;;;;;2.67;2.67;;;;;;;;3556771;39;114168;-66
2021/04/23 10:51:22;;;;;;;;;3.00;3.00;;;;;;;;3560031;39;113123;-70
2021/04/23 10:53:49;;;;;;;;;2.67;2.67;;;;;;;;3558320;39;113699;-72
2021/04/23 10:56:24;;;;;;;;;3.00;3.00;;;;;;;;3559851;39;114057;-70
2021/04/23 10:58:51;;;;;;;;;3.00;3.00;;;;;;;;3561031;39;111973;-68
2021/04/23 11:01:22;;;;;;;;;5.00;3.75;;;;;;;;3555155;39;112860;-70
2021/04/23 11:03:57;;;;;;;;;4.00;3.00;;;;;;;;3554582;39;112239;-71
2021/04/23 11:06:30;;;;;;;;;5.00;2.33;;;;;;;;3558655;39;113780;-71
2021/04/23 11:09:14;;;;;;;;;3.00;2.00;;;;;;;;3556475;39;112932;-71
2021/04/23 11:11:40;;;;;;;;;3.00;3.00;;;;;;;;3557667;39;111894;-69
2021/04/23 11:14:24;;;;;;;;;4.25;4.00;;;;;;;;3557548;39;113106;-69
2021/04/23 14:46:53;;;;;;;;;4.20;3.00;;;;;;;;3566604;39;112267;-69
2021/04/23 14:49:19;;;;;;;;;6.00;4.25;;;;;;;;3562259;39;113984;-70
2021/04/23 14:51:45;;;;;;;;;4.00;4.00;;;;;;;;3562152;39;111904;-70
2021/04/23 14:54:12;;;;;;;;;4.00;4.00;;;;;;;;3563320;39;114097;-70
2021/04/23 14:56:39;;;;;;;;;7.25;6.00;;;;;;;;3562859;39;115119;-72
2021/04/23 14:59:05;;;;;;;;;5.75;5.00;;;;;;;;3563046;39;112215;-71
2021/04/23 15:01:31;;;;;;;;;4.25;4.25;;;;;;;;3563385;39;114420;-70
2021/04/23 15:03:58;;;;;;;;;4.50;4.00;;;;;;;;3564136;39;113989;-71
2021/04/23 15:06:24;;;;;;;;;3.00;3.00;;;;;;;;3565148;39;112193;-71
2021/04/23 15:08:50;;;;;;;;;4.00;4.00;;;;;;;;3563046;39;113760;-70
2021/04/23 15:11:17;;;;;;;;;4.00;4.00;;;;;;;;3563400;39;111920;-70
2021/04/23 15:13:43;;;;;;;;;5.00;4.75;;;;;;;;3563686;39;112803;-69
2021/04/23 15:16:09;;;;;;;;;5.00;4.00;;;;;;;;3564180;39;114205;-68
2021/04/23 15:18:35;;;;;;;;;7.25;5.00;;;;;;;;3564690;39;112966;-69
2021/04/23 15:21:03;;;;;;;;;2.25;0.75;;;;;;;;3561811;39;113719;-70
2021/04/23 15:23:30;;;;;;;;;4.50;4.00;;;;;;;;3560036;39;113928;-68
2021/04/23 15:25:56;;;;;;;;;4.75;4.75;;;;;;;;3559141;39;112017;-70
2021/04/23 15:28:23;;;;;;;;;4.25;4.00;;;;;;;;3562361;39;113342;-68
2021/04/23 15:30:49;;;;;;;;;4.75;4.75;;;;;;;;3560118;39;111780;-67
2021/04/23 15:33:16;;;;;;;;;4.00;4.00;;;;;;;;3558442;39;113602;-68
2021/04/23 15:35:42;;;;;;;;;5.00;5.00;;;;;;;;3558984;39;114217;-67
2021/04/23 15:38:11;;;;;;;;;4.00;4.00;;;;;;;;3559128;39;112145;-67
2021/04/23 15:40:38;;;;;;;;;7.00;6.00;;;;;;;;3563332;39;113783;-82
2021/04/23 15:43:04;;;;;;;;;5.00;5.00;;;;;;;;3565678;39;114562;-87
2021/04/23 15:45:32;;;;;;;;;5.00;5.00;;;;;;;;3562871;39;112504;-74
2021/04/23 15:47:58;;;;;;;;;5.75;5.75;;;;;;;;3557553;39;113625;-80
2021/04/23 15:50:25;;;;;;;;;5.50;5.50;;;;;;;;3562418;39;114136;-75
2021/04/23 15:52:51;;;;;;;;;4.75;4.75;;;;;;;;3561025;39;114116;-77
2021/04/23 15:55:19;;;;;;;;;4.00;4.00;;;;;;;;3558681;39;113694;-74
2021/04/23 15:57:45;;;;;;;;;4.00;4.00;;;;;;;;3554836;39;112625;-73
2021/04/23 16:00:13;;;;;;;;;5.25;4.50;;;;;;;;3554557;39;113292;-78
2021/04/23 16:02:40;;;;;;;;;5.75;5.25;;;;;;;;3553944;39;114172;-70
2021/04/23 16:05:06;;;;;;;;;5.00;5.00;;;;;;;;3554659;39;112359;-73
2021/04/23 16:07:32;;;;;;;;;4.50;4.50;;;;;;;;3550628;39;113300;-77
2021/04/23 16:09:59;;;;;;;;;5.75;4.50;;;;;;;;3557533;39;113893;-72
2021/04/23 16:12:26;;;;;;;;;4.00;4.00;;;;;;;;3562454;39;112438;-74
2021/04/23 16:14:52;;;;;;;;;5.00;5.00;;;;;;;;3558204;39;113816;-72
2021/04/23 16:17:18;;;;;;;;;5.00;5.00;;;;;;;;3558696;39;112358;-71
2021/04/23 16:19:44;;;;;;;;;6.75;5.00;;;;;;;;3557046;39;113176;-73
2021/04/23 16:22:10;;;;;;;;;3.75;3.75;;;;;;;;3558600;39;114014;-74
2021/04/23 16:24:37;;;;;;;;;5.00;5.00;;;;;;;;3558165;39;112533;-73
2021/04/23 16:27:03;;;;;;;;;6.50;4.00;;;;;;;;3557658;39;113192;-75
2021/04/23 16:29:30;;;;;;;;;4.00;4.00;;;;;;;;3557990;39;114210;-70
2021/04/23 16:31:56;;;;;;;;;9.75;9.75;;;;;;;;3557311;39;112459;-71
2021/04/23 16:34:22;;;;;;;;;6.00;6.00;;;;;;;;3557702;39;113389;-68
2021/04/23 16:36:48;;;;;;;;;5.75;5.75;;;;;;;;3558043;39;112150;-68
2021/04/23 16:39:14;;;;;;;;;5.00;5.00;;;;;;;;3559307;39;113931;-73
2021/04/23 16:41:40;;;;;;;;;4.25;4.25;;;;;;;;3558680;39;114161;-69
2021/04/23 16:44:07;;;;;;;;;5.50;4.00;;;;;;;;3556048;39;112187;-72
2021/04/23 16:46:35;;;;;;;;;2.75;2.75;;;;;;;;3556916;39;113278;-68
2021/04/23 16:49:01;;;;;;;;;5.00;4.75;;;;;;;;3555406;39;112982;-70
2021/04/23 16:51:27;;;;;;;;;6.50;5.50;;;;;;;;3553572;39;111971;-70
2021/04/23 16:53:53;;;;;;;;;5.75;4.75;;;;;;;;3556465;39;113422;-71
2021/04/23 16:56:19;;;;;;;;;4.00;4.00;;;;;;;;3560196;39;112167;-72
2021/04/23 16:58:45;;;;;;;;;4.25;4.25;;;;;;;;3557386;39;113284;-73
2021/04/23 17:01:11;;;;;;;;;5.75;5.00;;;;;;;;3551723;39;115004;-72
2021/04/23 17:03:38;;;;;;;;;5.75;5.00;;;;;;;;3551713;39;112135;-70
2021/04/23 17:06:04;;;;;;;;;5.00;5.00;;;;;;;;3551213;39;113276;-76
2021/04/23 17:08:30;;;;;;;;;5.00;5.00;;;;;;;;3552336;39;113886;-74
2021/04/23 17:10:57;;;;;;;;;4.75;4.75;;;;;;;;3553132;39;112155;-69
2021/04/23 17:13:23;;;;;;;;;6.00;6.00;;;;;;;;3553376;39;113316;-69
2021/04/23 17:15:49;;;;;;;;;5.00;5.00;;;;;;;;3555790;39;113993;-68
2021/04/23 17:18:15;;;;;;;;;5.00;5.00;;;;;;;;3553226;39;113804;-68
2021/04/23 17:20:42;;;;;;;;;7.00;6.00;;;;;;;;3552870;39;114399;-71
2021/04/23 17:23:09;;;;;;;;;5.00;4.25;;;;;;;;3553045;39;112062;-71
2021/04/23 17:25:35;;;;;;;;;6.25;6.25;;;;;;;;3553396;39;113307;-69
2021/04/23 17:28:01;;;;;;;;;4.00;4.00;;;;;;;;3552351;39;114031;-74
2021/04/23 17:30:27;;;;;;;;;5.00;5.00;;;;;;;;3553268;39;111830;-69
2021/04/23 17:32:53;;;;;;;;;5.00;5.00;;;;;;;;3554840;39;113215;-68
2021/04/23 17:35:20;;;;;;;;;5.75;5.00;;;;;;;;3554827;39;114012;-69
2021/04/23 17:37:47;;;;;;;;;5.00;4.00;;;;;;;;3558197;39;112204;-71
2021/04/23 17:40:13;;;;;;;;;7.00;5.50;;;;;;;;3550835;39;113738;-68
2021/04/23 17:42:40;;;;;;;;;7.25;7.25;;;;;;;;3553189;39;111771;-66
2021/04/23 17:45:07;;;;;;;;;7.00;6.00;;;;;;;;3552906;39;113590;-68